sensor_id;sensor_type;location;lat;lon;timestamp;P1;durP1;ratioP1;P2;durP2;ratioP2
71910;SDS011;59783;52.232;5.170;2023-04-01T00:02:19;44.53;;;30.33;;
71910;SDS011;59783;52.232;5.170;2023-04-01T00:04:44;48.83;;;30.50;;
71910;SDS011;59783;52.232;5.170;2023-04-01T00:07:09;48.20;;;31.48;;
71910;SDS011;59783;52.232;5.170;2023-04-01T00:09:34;65.83;;;32.10;;
71910;SDS011;59783;52.232;5.170;2023-04-01T00:12:00;50.08;;;32.88;;
71910;SDS011;59783;52.232;5.170;2023-04-01T00:14:25;51.60;;;30.60;;
71910;SDS011;59783;52.232;5.170;2023-04-01T00:16:50;49.17;;;33.72;;
71910;SDS011;59783;52.232;5.170;2023-04-01T00:19:17;46.60;;;31.52;;
71910;SDS011;59783;52.232;5.170;2023-04-01T00:21:42;41.35;;;31.48;;
71910;SDS011;59783;52.232;5.170;2023-04-01T00:24:08;54.13;;;32.70;;
71910;SDS011;59783;52.232;5.170;2023-04-01T00:26:33;50.57;;;33.70;;
71910;SDS011;59783;52.232;5.170;2023-04-01T00:28:58;50.53;;;33.20;;
71910;SDS011;59783;52.232;5.170;2023-04-01T00:31:24;50.10;;;27.48;;
71910;SDS011;59783;52.232;5.170;2023-04-01T00:33:49;52.63;;;34.88;;
71910;SDS011;59783;52.232;5.170;2023-04-01T00:36:17;47.65;;;34.47;;
71910;SDS011;59783;52.232;5.170;2023-04-01T00:38:43;52.97;;;36.42;;
71910;SDS011;59783;52.232;5.170;2023-04-01T00:41:09;54.63;;;35.45;;
71910;SDS011;59783;52.232;5.170;2023-04-01T00:43:39;58.25;;;37.10;;
71910;SDS011;59783;52.232;5.170;2023-04-01T00:46:05;61.10;;;36.60;;
71910;SDS011;59783;52.232;5.170;2023-04-01T00:48:31;55.60;;;35.33;;
71910;SDS011;59783;52.232;5.170;2023-04-01T00:50:59;56.63;;;36.10;;
71910;SDS011;59783;52.232;5.170;2023-04-01T00:53:25;62.42;;;39.58;;
71910;SDS011;59783;52.232;5.170;2023-04-01T00:55:54;55.08;;;36.33;;
71910;SDS011;59783;52.232;5.170;2023-04-01T00:58:21;55.63;;;38.13;;
71910;SDS011;59783;52.232;5.170;2023-04-01T01:00:48;51.33;;;34.80;;
71910;SDS011;59783;52.232;5.170;2023-04-01T01:03:15;50.63;;;37.45;;
71910;SDS011;59783;52.232;5.170;2023-04-01T01:08:15;42.60;;;32.83;;
71910;SDS011;59783;52.232;5.170;2023-04-01T01:10:41;40.95;;;28.17;;
71910;SDS011;59783;52.232;5.170;2023-04-01T01:13:23;48.17;;;37.17;;
71910;SDS011;59783;52.232;5.170;2023-04-01T01:37:17;34.85;;;30.20;;
71910;SDS011;59783;52.232;5.170;2023-04-01T01:39:44;35.92;;;32.13;;
71910;SDS011;59783;52.232;5.170;2023-04-01T01:42:13;45.25;;;33.40;;
71910;SDS011;59783;52.232;5.170;2023-04-01T01:44:38;40.55;;;31.75;;
71910;SDS011;59783;52.232;5.170;2023-04-01T01:47:05;35.33;;;31.25;;
71910;SDS011;59783;52.232;5.170;2023-04-01T01:49:30;28.42;;;24.63;;
71910;SDS011;59783;52.232;5.170;2023-04-01T01:51:56;37.05;;;31.90;;
71910;SDS011;59783;52.232;5.170;2023-04-01T01:54:22;33.88;;;30.27;;
71910;SDS011;59783;52.232;5.170;2023-04-01T01:56:49;31.77;;;28.37;;
71910;SDS011;59783;52.232;5.170;2023-04-01T01:59:15;32.92;;;29.25;;
71910;SDS011;59783;52.232;5.170;2023-04-01T02:01:42;33.63;;;30.10;;
71910;SDS011;59783;52.232;5.170;2023-04-01T02:04:10;32.85;;;29.58;;
71910;SDS011;59783;52.232;5.170;2023-04-01T02:06:37;36.17;;;32.38;;
71910;SDS011;59783;52.232;5.170;2023-04-01T02:09:03;32.10;;;28.85;;
71910;SDS011;59783;52.232;5.170;2023-04-01T02:11:32;34.50;;;30.85;;
71910;SDS011;59783;52.232;5.170;2023-04-01T02:14:06;26.42;;;22.83;;
71910;SDS011;59783;52.232;5.170;2023-04-01T02:16:36;36.03;;;32.35;;
71910;SDS011;59783;52.232;5.170;2023-04-01T02:19:03;34.00;;;30.70;;
71910;SDS011;59783;52.232;5.170;2023-04-01T02:21:32;34.00;;;30.48;;
71910;SDS011;59783;52.232;5.170;2023-04-01T02:23:57;34.47;;;30.83;;
71910;SDS011;59783;52.232;5.170;2023-04-01T02:26:24;38.50;;;30.55;;
71910;SDS011;59783;52.232;5.170;2023-04-01T02:28:50;37.83;;;31.90;;
71910;SDS011;59783;52.232;5.170;2023-04-01T02:31:15;35.85;;;31.80;;
71910;SDS011;59783;52.232;5.170;2023-04-01T02:33:41;35.92;;;31.80;;
71910;SDS011;59783;52.232;5.170;2023-04-01T02:36:10;35.53;;;31.77;;
71910;SDS011;59783;52.232;5.170;2023-04-01T02:38:35;34.00;;;30.35;;
71910;SDS011;59783;52.232;5.170;2023-04-01T02:41:01;36.60;;;32.13;;
71910;SDS011;59783;52.232;5.170;2023-04-01T02:43:27;37.60;;;32.10;;
71910;SDS011;59783;52.232;5.170;2023-04-01T02:45:53;41.28;;;36.33;;
71910;SDS011;59783;52.232;5.170;2023-04-01T02:48:18;46.03;;;34.03;;
71910;SDS011;59783;52.232;5.170;2023-04-01T02:50:43;43.10;;;36.13;;
71910;SDS011;59783;52.232;5.170;2023-04-01T02:53:08;42.00;;;36.83;;
71910;SDS011;59783;52.232;5.170;2023-04-01T02:55:34;45.77;;;34.77;;
71910;SDS011;59783;52.232;5.170;2023-04-01T02:57:59;44.35;;;34.35;;
71910;SDS011;59783;52.232;5.170;2023-04-01T03:00:25;44.08;;;34.75;;
71910;SDS011;59783;52.232;5.170;2023-04-01T03:02:50;46.53;;;35.75;;
71910;SDS011;59783;52.232;5.170;2023-04-01T03:05:15;43.53;;;35.00;;
71910;SDS011;59783;52.232;5.170;2023-04-01T03:07:41;48.05;;;35.13;;
71910;SDS011;59783;52.232;5.170;2023-04-01T03:10:06;50.37;;;36.00;;
71910;SDS011;59783;52.232;5.170;2023-04-01T03:12:32;58.13;;;39.45;;
71910;SDS011;59783;52.232;5.170;2023-04-01T03:14:57;48.03;;;34.47;;
71910;SDS011;59783;52.232;5.170;2023-04-01T03:17:22;52.00;;;35.57;;
71910;SDS011;59783;52.232;5.170;2023-04-01T03:19:48;59.03;;;37.13;;
71910;SDS011;59783;52.232;5.170;2023-04-01T03:22:13;51.63;;;36.25;;
71910;SDS011;59783;52.232;5.170;2023-04-01T03:24:38;51.17;;;34.33;;
71910;SDS011;59783;52.232;5.170;2023-04-01T03:27:03;46.92;;;36.35;;
71910;SDS011;59783;52.232;5.170;2023-04-01T03:29:29;47.20;;;36.83;;
71910;SDS011;59783;52.232;5.170;2023-04-01T03:31:54;49.57;;;34.67;;
71910;SDS011;59783;52.232;5.170;2023-04-01T03:34:22;44.17;;;34.50;;
71910;SDS011;59783;52.232;5.170;2023-04-01T03:36:47;46.57;;;36.37;;
71910;SDS011;59783;52.232;5.170;2023-04-01T03:39:13;43.57;;;34.10;;
71910;SDS011;59783;52.232;5.170;2023-04-01T03:41:38;49.80;;;34.50;;
71910;SDS011;59783;52.232;5.170;2023-04-01T03:44:03;44.97;;;34.27;;
71910;SDS011;59783;52.232;5.170;2023-04-01T03:46:28;48.70;;;34.40;;
71910;SDS011;59783;52.232;5.170;2023-04-01T03:48:53;48.63;;;27.47;;
71910;SDS011;59783;52.232;5.170;2023-04-01T03:51:19;47.53;;;33.63;;
71910;SDS011;59783;52.232;5.170;2023-04-01T03:53:44;47.77;;;34.10;;
71910;SDS011;59783;52.232;5.170;2023-04-01T03:56:09;48.72;;;35.40;;
71910;SDS011;59783;52.232;5.170;2023-04-01T03:58:35;42.22;;;35.50;;
71910;SDS011;59783;52.232;5.170;2023-04-01T04:01:00;38.35;;;32.50;;
71910;SDS011;59783;52.232;5.170;2023-04-01T04:03:25;39.57;;;33.37;;
71910;SDS011;59783;52.232;5.170;2023-04-01T04:05:51;35.75;;;31.88;;
71910;SDS011;59783;52.232;5.170;2023-04-01T04:08:16;36.17;;;32.17;;
71910;SDS011;59783;52.232;5.170;2023-04-01T04:10:43;33.20;;;29.80;;
71910;SDS011;59783;52.232;5.170;2023-04-01T04:13:08;37.30;;;33.42;;
71910;SDS011;59783;52.232;5.170;2023-04-01T04:15:33;35.88;;;32.28;;
71910;SDS011;59783;52.232;5.170;2023-04-01T04:17:59;37.57;;;33.00;;
71910;SDS011;59783;52.232;5.170;2023-04-01T04:20:24;37.73;;;32.33;;
71910;SDS011;59783;52.232;5.170;2023-04-01T04:22:49;37.80;;;34.00;;
71910;SDS011;59783;52.232;5.170;2023-04-01T04:25:14;39.60;;;35.35;;
71910;SDS011;59783;52.232;5.170;2023-04-01T04:27:39;39.03;;;35.07;;
71910;SDS011;59783;52.232;5.170;2023-04-01T04:30:05;34.55;;;29.38;;
71910;SDS011;59783;52.232;5.170;2023-04-01T04:32:30;39.97;;;35.67;;
71910;SDS011;59783;52.232;5.170;2023-04-01T04:34:55;43.80;;;39.53;;
71910;SDS011;59783;52.232;5.170;2023-04-01T04:37:21;41.00;;;36.80;;
71910;SDS011;59783;52.232;5.170;2023-04-01T04:39:46;40.63;;;36.38;;
71910;SDS011;59783;52.232;5.170;2023-04-01T04:42:11;32.90;;;27.80;;
71910;SDS011;59783;52.232;5.170;2023-04-01T04:44:36;39.70;;;34.97;;
71910;SDS011;59783;52.232;5.170;2023-04-01T04:47:02;37.67;;;33.63;;
71910;SDS011;59783;52.232;5.170;2023-04-01T04:49:27;38.97;;;34.87;;
71910;SDS011;59783;52.232;5.170;2023-04-01T04:51:52;37.73;;;33.70;;
71910;SDS011;59783;52.232;5.170;2023-04-01T04:54:17;37.67;;;33.97;;
71910;SDS011;59783;52.232;5.170;2023-04-01T04:56:43;39.60;;;35.30;;
71910;SDS011;59783;52.232;5.170;2023-04-01T04:59:08;40.17;;;35.43;;
71910;SDS011;59783;52.232;5.170;2023-04-01T05:01:33;40.27;;;35.93;;
71910;SDS011;59783;52.232;5.170;2023-04-01T05:03:59;41.40;;;37.00;;
71910;SDS011;59783;52.232;5.170;2023-04-01T05:06:25;35.70;;;29.83;;
71910;SDS011;59783;52.232;5.170;2023-04-01T05:08:50;39.25;;;35.05;;
71910;SDS011;59783;52.232;5.170;2023-04-01T05:11:19;41.97;;;36.03;;
71910;SDS011;59783;52.232;5.170;2023-04-01T05:13:44;36.92;;;26.77;;
71910;SDS011;59783;52.232;5.170;2023-04-01T05:16:10;38.47;;;32.22;;
71910;SDS011;59783;52.232;5.170;2023-04-01T05:18:36;35.00;;;27.75;;
71910;SDS011;59783;52.232;5.170;2023-04-01T05:21:01;42.13;;;33.58;;
71910;SDS011;59783;52.232;5.170;2023-04-01T05:23:26;39.10;;;33.57;;
71910;SDS011;59783;52.232;5.170;2023-04-01T05:25:51;39.23;;;34.30;;
71910;SDS011;59783;52.232;5.170;2023-04-01T05:28:18;36.92;;;33.08;;
71910;SDS011;59783;52.232;5.170;2023-04-01T05:30:43;38.03;;;31.50;;
71910;SDS011;59783;52.232;5.170;2023-04-01T05:33:09;36.03;;;32.13;;
71910;SDS011;59783;52.232;5.170;2023-04-01T05:35:35;38.05;;;32.80;;
71910;SDS011;59783;52.232;5.170;2023-04-01T05:38:01;41.85;;;33.40;;
71910;SDS011;59783;52.232;5.170;2023-04-01T05:40:27;38.20;;;34.00;;
71910;SDS011;59783;52.232;5.170;2023-04-01T05:42:52;42.97;;;34.13;;
71910;SDS011;59783;52.232;5.170;2023-04-01T05:45:17;37.95;;;33.92;;
71910;SDS011;59783;52.232;5.170;2023-04-01T05:47:42;36.75;;;32.78;;
71910;SDS011;59783;52.232;5.170;2023-04-01T05:50:08;37.70;;;31.83;;
71910;SDS011;59783;52.232;5.170;2023-04-01T05:52:34;37.65;;;33.13;;
71910;SDS011;59783;52.232;5.170;2023-04-01T05:54:59;43.13;;;33.67;;
71910;SDS011;59783;52.232;5.170;2023-04-01T05:57:25;40.72;;;32.78;;
71910;SDS011;59783;52.232;5.170;2023-04-01T05:59:50;38.70;;;32.42;;
71910;SDS011;59783;52.232;5.170;2023-04-01T06:02:16;39.15;;;31.45;;
71910;SDS011;59783;52.232;5.170;2023-04-01T06:04:42;35.67;;;29.23;;
71910;SDS011;59783;52.232;5.170;2023-04-01T06:07:13;34.13;;;30.47;;
71910;SDS011;59783;52.232;5.170;2023-04-01T06:09:39;37.67;;;31.13;;
71910;SDS011;59783;52.232;5.170;2023-04-01T06:29:52;36.27;;;26.30;;
71910;SDS011;59783;52.232;5.170;2023-04-01T06:32:34;36.75;;;32.83;;
71910;SDS011;59783;52.232;5.170;2023-04-01T06:35:15;37.58;;;33.60;;
71910;SDS011;59783;52.232;5.170;2023-04-01T06:40:31;36.03;;;31.63;;
71910;SDS011;59783;52.232;5.170;2023-04-01T06:43:05;35.97;;;31.20;;
71910;SDS011;59783;52.232;5.170;2023-04-01T06:48:13;37.53;;;33.53;;
71910;SDS011;59783;52.232;5.170;2023-04-01T06:55:56;49.92;;;39.58;;
71910;SDS011;59783;52.232;5.170;2023-04-01T06:58:23;47.63;;;35.83;;
71910;SDS011;59783;52.232;5.170;2023-04-01T07:00:59;43.70;;;36.90;;
71910;SDS011;59783;52.232;5.170;2023-04-01T07:03:30;44.85;;;29.92;;
71910;SDS011;59783;52.232;5.170;2023-04-01T07:05:58;44.25;;;36.15;;
71910;SDS011;59783;52.232;5.170;2023-04-01T07:08:25;40.85;;;32.17;;
71910;SDS011;59783;52.232;5.170;2023-04-01T07:13:30;42.63;;;30.75;;
71910;SDS011;59783;52.232;5.170;2023-04-01T07:15:59;47.90;;;37.95;;
71910;SDS011;59783;52.232;5.170;2023-04-01T07:18:30;51.40;;;39.83;;
71910;SDS011;59783;52.232;5.170;2023-04-01T07:20:57;52.45;;;38.75;;
71910;SDS011;59783;52.232;5.170;2023-04-01T07:23:24;46.65;;;36.90;;
71910;SDS011;59783;52.232;5.170;2023-04-01T07:25:52;46.30;;;39.30;;
71910;SDS011;59783;52.232;5.170;2023-04-01T07:28:18;46.10;;;31.05;;
71910;SDS011;59783;52.232;5.170;2023-04-01T07:33:16;51.25;;;35.42;;
71910;SDS011;59783;52.232;5.170;2023-04-01T07:35:46;51.50;;;36.28;;
71910;SDS011;59783;52.232;5.170;2023-04-01T07:38:21;49.60;;;38.55;;
71910;SDS011;59783;52.232;5.170;2023-04-01T07:43:34;45.90;;;34.35;;
71910;SDS011;59783;52.232;5.170;2023-04-01T07:48:59;54.67;;;37.58;;
71910;SDS011;59783;52.232;5.170;2023-04-01T07:56:25;54.78;;;36.15;;
71910;SDS011;59783;52.232;5.170;2023-04-01T07:59:14;46.05;;;29.33;;
71910;SDS011;59783;52.232;5.170;2023-04-01T08:01:49;53.22;;;37.05;;
71910;SDS011;59783;52.232;5.170;2023-04-01T08:06:52;55.22;;;36.63;;
71910;SDS011;59783;52.232;5.170;2023-04-01T08:14:48;47.97;;;36.45;;
71910;SDS011;59783;52.232;5.170;2023-04-01T08:17:28;44.28;;;31.73;;
71910;SDS011;59783;52.232;5.170;2023-04-01T08:22:45;46.75;;;35.20;;
71910;SDS011;59783;52.232;5.170;2023-04-01T08:25:13;49.63;;;35.17;;
71910;SDS011;59783;52.232;5.170;2023-04-01T08:27:45;50.40;;;37.88;;
71910;SDS011;59783;52.232;5.170;2023-04-01T08:30:18;46.75;;;38.33;;
71910;SDS011;59783;52.232;5.170;2023-04-01T08:32:48;52.03;;;36.60;;
71910;SDS011;59783;52.232;5.170;2023-04-01T08:38:28;43.63;;;33.03;;
71910;SDS011;59783;52.232;5.170;2023-04-01T08:56:36;37.75;;;25.77;;
71910;SDS011;59783;52.232;5.170;2023-04-01T09:04:31;38.30;;;32.55;;
71910;SDS011;59783;52.232;5.170;2023-04-01T09:07:38;36.58;;;32.10;;
71910;SDS011;59783;52.232;5.170;2023-04-01T09:12:30;36.78;;;32.78;;
71910;SDS011;59783;52.232;5.170;2023-04-01T09:17:48;39.17;;;34.50;;
71910;SDS011;59783;52.232;5.170;2023-04-01T09:23:14;31.00;;;26.15;;
71910;SDS011;59783;52.232;5.170;2023-04-01T09:25:53;39.33;;;35.05;;
71910;SDS011;59783;52.232;5.170;2023-04-01T09:28:28;40.63;;;36.33;;
71910;SDS011;59783;52.232;5.170;2023-04-01T09:30:57;35.95;;;27.88;;
71910;SDS011;59783;52.232;5.170;2023-04-01T09:48:15;38.22;;;34.15;;
71910;SDS011;59783;52.232;5.170;2023-04-01T09:50:52;40.63;;;32.90;;
71910;SDS011;59783;52.232;5.170;2023-04-01T10:16:30;44.33;;;36.55;;
71910;SDS011;59783;52.232;5.170;2023-04-01T10:21:50;43.83;;;34.75;;
71910;SDS011;59783;52.232;5.170;2023-04-01T10:42:38;38.78;;;30.33;;
71910;SDS011;59783;52.232;5.170;2023-04-01T11:01:27;34.90;;;31.27;;
71910;SDS011;59783;52.232;5.170;2023-04-01T11:17:10;36.78;;;32.78;;
71910;SDS011;59783;52.232;5.170;2023-04-01T11:22:35;35.63;;;31.98;;
71910;SDS011;59783;52.232;5.170;2023-04-01T11:25:08;35.08;;;31.48;;
71910;SDS011;59783;52.232;5.170;2023-04-01T11:27:41;35.33;;;31.67;;
71910;SDS011;59783;52.232;5.170;2023-04-01T11:30:14;36.22;;;32.65;;
71910;SDS011;59783;52.232;5.170;2023-04-01T11:33:03;40.72;;;36.88;;
71910;SDS011;59783;52.232;5.170;2023-04-01T11:35:38;30.83;;;27.17;;
71910;SDS011;59783;52.232;5.170;2023-04-01T11:40:54;36.65;;;32.78;;
71910;SDS011;59783;52.232;5.170;2023-04-01T11:48:52;35.75;;;30.80;;
71910;SDS011;59783;52.232;5.170;2023-04-01T12:01:13;39.92;;;34.80;;
71910;SDS011;59783;52.232;5.170;2023-04-01T12:09:36;39.42;;;33.58;;
71910;SDS011;59783;52.232;5.170;2023-04-01T12:17:20;34.70;;;28.48;;
71910;SDS011;59783;52.232;5.170;2023-04-01T12:20:01;35.72;;;31.95;;
71910;SDS011;59783;52.232;5.170;2023-04-01T12:22:48;37.67;;;33.35;;
71910;SDS011;59783;52.232;5.170;2023-04-01T12:27:49;35.72;;;26.48;;
71910;SDS011;59783;52.232;5.170;2023-04-01T12:30:27;38.10;;;30.67;;
71910;SDS011;59783;52.232;5.170;2023-04-01T12:46:24;48.08;;;39.78;;
71910;SDS011;59783;52.232;5.170;2023-04-01T12:56:49;36.72;;;31.08;;
71910;SDS011;59783;52.232;5.170;2023-04-01T13:12:26;34.38;;;30.77;;
71910;SDS011;59783;52.232;5.170;2023-04-01T13:20:28;35.85;;;32.45;;
71910;SDS011;59783;52.232;5.170;2023-04-01T13:25:32;36.13;;;32.67;;
71910;SDS011;59783;52.232;5.170;2023-04-01T13:28:05;36.45;;;32.85;;
71910;SDS011;59783;52.232;5.170;2023-04-01T13:33:40;35.65;;;32.13;;
71910;SDS011;59783;52.232;5.170;2023-04-01T13:46:52;36.08;;;32.22;;
71910;SDS011;59783;52.232;5.170;2023-04-01T13:57:21;38.63;;;34.67;;
71910;SDS011;59783;52.232;5.170;2023-04-01T14:02:24;45.47;;;40.85;;
71910;SDS011;59783;52.232;5.170;2023-04-01T14:07:41;39.75;;;33.40;;
71910;SDS011;59783;52.232;5.170;2023-04-01T14:10:57;41.42;;;35.80;;
71910;SDS011;59783;52.232;5.170;2023-04-01T14:15:25;39.23;;;35.03;;
71910;SDS011;59783;52.232;5.170;2023-04-01T14:25:46;32.90;;;27.83;;
71910;SDS011;59783;52.232;5.170;2023-04-01T14:28:30;31.17;;;27.35;;
71910;SDS011;59783;52.232;5.170;2023-04-01T14:30:59;34.10;;;27.48;;
71910;SDS011;59783;52.232;5.170;2023-04-01T14:33:43;38.95;;;35.00;;
71910;SDS011;59783;52.232;5.170;2023-04-01T14:36:21;37.45;;;33.47;;
71910;SDS011;59783;52.232;5.170;2023-04-01T14:46:51;30.93;;;26.00;;
71910;SDS011;59783;52.232;5.170;2023-04-01T14:51:50;30.27;;;26.55;;
71910;SDS011;59783;52.232;5.170;2023-04-01T14:54:21;36.85;;;33.00;;
71910;SDS011;59783;52.232;5.170;2023-04-01T14:57:05;36.72;;;33.03;;
71910;SDS011;59783;52.232;5.170;2023-04-01T14:59:34;32.15;;;28.65;;
71910;SDS011;59783;52.232;5.170;2023-04-01T15:04:50;35.33;;;31.65;;
71910;SDS011;59783;52.232;5.170;2023-04-01T15:12:30;34.13;;;30.63;;
71910;SDS011;59783;52.232;5.170;2023-04-01T15:18:05;30.50;;;27.20;;
71910;SDS011;59783;52.232;5.170;2023-04-01T15:23:33;35.67;;;32.08;;
71910;SDS011;59783;52.232;5.170;2023-04-01T15:28:10;30.83;;;24.03;;
71910;SDS011;59783;52.232;5.170;2023-04-01T15:36:07;28.88;;;24.77;;
71910;SDS011;59783;52.232;5.170;2023-04-01T15:43:58;27.30;;;22.65;;
71910;SDS011;59783;52.232;5.170;2023-04-01T15:46:46;32.17;;;28.97;;
71910;SDS011;59783;52.232;5.170;2023-04-01T15:49:35;32.08;;;28.77;;
71910;SDS011;59783;52.232;5.170;2023-04-01T15:54:39;33.47;;;29.95;;
71910;SDS011;59783;52.232;5.170;2023-04-01T15:57:21;32.28;;;29.08;;
71910;SDS011;59783;52.232;5.170;2023-04-01T16:00:06;32.97;;;28.88;;
71910;SDS011;59783;52.232;5.170;2023-04-01T16:02:39;33.17;;;29.70;;
71910;SDS011;59783;52.232;5.170;2023-04-01T16:07:43;31.80;;;28.40;;
71910;SDS011;59783;52.232;5.170;2023-04-01T16:10:23;33.05;;;29.67;;
71910;SDS011;59783;52.232;5.170;2023-04-01T16:12:56;31.60;;;28.15;;
71910;SDS011;59783;52.232;5.170;2023-04-01T16:15:29;30.67;;;27.58;;
71910;SDS011;59783;52.232;5.170;2023-04-01T16:23:16;31.67;;;28.65;;
71910;SDS011;59783;52.232;5.170;2023-04-01T16:25:44;30.02;;;27.15;;
71910;SDS011;59783;52.232;5.170;2023-04-01T16:30:42;30.00;;;27.30;;
71910;SDS011;59783;52.232;5.170;2023-04-01T16:36:00;24.73;;;22.30;;
71910;SDS011;59783;52.232;5.170;2023-04-01T16:48:44;30.17;;;27.42;;
71910;SDS011;59783;52.232;5.170;2023-04-01T16:51:15;29.20;;;26.52;;
71910;SDS011;59783;52.232;5.170;2023-04-01T16:53:42;29.15;;;26.42;;
71910;SDS011;59783;52.232;5.170;2023-04-01T16:56:21;28.92;;;26.23;;
71910;SDS011;59783;52.232;5.170;2023-04-01T17:01:22;22.45;;;20.15;;
71910;SDS011;59783;52.232;5.170;2023-04-01T17:03:51;30.42;;;27.63;;
71910;SDS011;59783;52.232;5.170;2023-04-01T17:13:45;25.80;;;23.45;;
71910;SDS011;59783;52.232;5.170;2023-04-01T17:34:10;28.35;;;25.75;;
71910;SDS011;59783;52.232;5.170;2023-04-01T17:39:18;29.85;;;27.15;;
71910;SDS011;59783;52.232;5.170;2023-04-01T17:41:54;30.25;;;27.60;;
71910;SDS011;59783;52.232;5.170;2023-04-01T17:49:38;31.15;;;28.27;;
71910;SDS011;59783;52.232;5.170;2023-04-01T18:03:00;29.83;;;27.10;;
71910;SDS011;59783;52.232;5.170;2023-04-01T18:05:33;29.10;;;26.40;;
71910;SDS011;59783;52.232;5.170;2023-04-01T18:10:57;29.00;;;26.27;;
71910;SDS011;59783;52.232;5.170;2023-04-01T18:16:14;29.60;;;26.90;;
71910;SDS011;59783;52.232;5.170;2023-04-01T18:18:48;28.70;;;26.02;;
71910;SDS011;59783;52.232;5.170;2023-04-01T18:23:53;23.30;;;20.90;;
71910;SDS011;59783;52.232;5.170;2023-04-01T18:26:21;27.67;;;25.17;;
71910;SDS011;59783;52.232;5.170;2023-04-01T18:31:26;26.70;;;24.20;;
71910;SDS011;59783;52.232;5.170;2023-04-01T18:33:59;28.08;;;25.58;;
71910;SDS011;59783;52.232;5.170;2023-04-01T18:39:16;27.25;;;24.75;;
71910;SDS011;59783;52.232;5.170;2023-04-01T18:44:22;23.73;;;21.35;;
71910;SDS011;59783;52.232;5.170;2023-04-01T18:47:03;31.20;;;28.40;;
71910;SDS011;59783;52.232;5.170;2023-04-01T18:49:33;31.35;;;28.55;;
71910;SDS011;59783;52.232;5.170;2023-04-01T18:52:15;31.60;;;28.65;;
71910;SDS011;59783;52.232;5.170;2023-04-01T18:54:45;31.73;;;28.83;;
71910;SDS011;59783;52.232;5.170;2023-04-01T18:57:17;31.33;;;28.48;;
71910;SDS011;59783;52.232;5.170;2023-04-01T18:59:48;25.23;;;22.60;;
71910;SDS011;59783;52.232;5.170;2023-04-01T19:02:24;34.25;;;31.05;;
71910;SDS011;59783;52.232;5.170;2023-04-01T19:05:05;32.25;;;29.33;;
71910;SDS011;59783;52.232;5.170;2023-04-01T19:10:11;34.28;;;30.85;;
71910;SDS011;59783;52.232;5.170;2023-04-01T19:12:48;34.45;;;30.80;;
71910;SDS011;59783;52.232;5.170;2023-04-01T19:15:20;26.80;;;24.00;;
71910;SDS011;59783;52.232;5.170;2023-04-01T19:25:38;27.60;;;24.67;;
71910;SDS011;59783;52.232;5.170;2023-04-01T19:30:33;27.83;;;24.92;;
71910;SDS011;59783;52.232;5.170;2023-04-01T19:38:53;33.92;;;30.40;;
71910;SDS011;59783;52.232;5.170;2023-04-01T19:47:13;34.22;;;31.02;;
71910;SDS011;59783;52.232;5.170;2023-04-01T19:52:31;33.42;;;30.25;;
71910;SDS011;59783;52.232;5.170;2023-04-01T19:57:27;32.25;;;29.15;;
71910;SDS011;59783;52.232;5.170;2023-04-01T20:02:33;31.15;;;27.95;;
71910;SDS011;59783;52.232;5.170;2023-04-01T20:05:04;34.00;;;30.63;;
71910;SDS011;59783;52.232;5.170;2023-04-01T20:07:37;32.63;;;29.27;;
71910;SDS011;59783;52.232;5.170;2023-04-01T20:10:16;26.90;;;23.98;;
71910;SDS011;59783;52.232;5.170;2023-04-01T20:12:47;32.67;;;29.38;;
71910;SDS011;59783;52.232;5.170;2023-04-01T20:15:31;32.90;;;29.70;;
71910;SDS011;59783;52.232;5.170;2023-04-01T20:17:59;30.08;;;26.98;;
71910;SDS011;59783;52.232;5.170;2023-04-01T20:20:26;30.83;;;27.63;;
71910;SDS011;59783;52.232;5.170;2023-04-01T20:25:42;31.27;;;28.25;;
71910;SDS011;59783;52.232;5.170;2023-04-01T20:40:37;30.10;;;27.10;;
71910;SDS011;59783;52.232;5.170;2023-04-01T20:43:14;25.23;;;22.33;;
71910;SDS011;59783;52.232;5.170;2023-04-01T20:50:52;31.27;;;27.92;;
71910;SDS011;59783;52.232;5.170;2023-04-01T20:53:25;31.77;;;28.65;;
71910;SDS011;59783;52.232;5.170;2023-04-01T20:55:58;28.13;;;23.55;;
71910;SDS011;59783;52.232;5.170;2023-04-01T21:03:51;26.73;;;22.52;;
71910;SDS011;59783;52.232;5.170;2023-04-01T21:19:03;30.08;;;26.92;;
71910;SDS011;59783;52.232;5.170;2023-04-01T21:21:49;31.70;;;28.38;;
71910;SDS011;59783;52.232;5.170;2023-04-01T21:24:35;32.05;;;28.67;;
71910;SDS011;59783;52.232;5.170;2023-04-01T21:30:03;25.42;;;22.02;;
71910;SDS011;59783;52.232;5.170;2023-04-01T21:32:46;32.10;;;26.92;;
71910;SDS011;59783;52.232;5.170;2023-04-01T21:48:01;26.80;;;22.30;;
71910;SDS011;59783;52.232;5.170;2023-04-01T21:53:53;29.45;;;26.45;;
71910;SDS011;59783;52.232;5.170;2023-04-01T21:59:10;31.42;;;28.23;;
71910;SDS011;59783;52.232;5.170;2023-04-01T22:06:51;33.50;;;29.02;;
71910;SDS011;59783;52.232;5.170;2023-04-01T22:09:25;28.60;;;22.05;;
71910;SDS011;59783;52.232;5.170;2023-04-01T22:14:21;26.17;;;22.30;;
71910;SDS011;59783;52.232;5.170;2023-04-01T22:16:56;31.25;;;28.00;;
71910;SDS011;59783;52.232;5.170;2023-04-01T22:22:14;33.40;;;29.58;;
71910;SDS011;59783;52.232;5.170;2023-04-01T22:24:46;32.15;;;28.85;;
71910;SDS011;59783;52.232;5.170;2023-04-01T22:27:35;35.60;;;31.85;;
71910;SDS011;59783;52.232;5.170;2023-04-01T22:30:04;27.98;;;24.95;;
71910;SDS011;59783;52.232;5.170;2023-04-01T22:32:50;31.85;;;28.42;;
71910;SDS011;59783;52.232;5.170;2023-04-01T22:48:05;34.58;;;30.92;;
71910;SDS011;59783;52.232;5.170;2023-04-01T22:55:32;33.45;;;29.90;;
71910;SDS011;59783;52.232;5.170;2023-04-01T22:58:05;35.33;;;31.63;;
71910;SDS011;59783;52.232;5.170;2023-04-01T23:00:37;34.90;;;30.33;;
71910;SDS011;59783;52.232;5.170;2023-04-01T23:05:53;29.90;;;24.10;;
71910;SDS011;59783;52.232;5.170;2023-04-01T23:11:04;35.17;;;31.38;;
71910;SDS011;59783;52.232;5.170;2023-04-01T23:13:44;35.08;;;31.42;;
71910;SDS011;59783;52.232;5.170;2023-04-01T23:16:10;35.78;;;30.90;;
71910;SDS011;59783;52.232;5.170;2023-04-01T23:18:46;35.38;;;31.48;;
71910;SDS011;59783;52.232;5.170;2023-04-01T23:21:25;36.75;;;31.05;;
71910;SDS011;59783;52.232;5.170;2023-04-01T23:24:35;36.25;;;32.33;;
71910;SDS011;59783;52.232;5.170;2023-04-01T23:29:11;30.40;;;23.65;;
71910;SDS011;59783;52.232;5.170;2023-04-01T23:31:38;34.95;;;29.48;;
71910;SDS011;59783;52.232;5.170;2023-04-01T23:36:29;35.00;;;31.23;;
71910;SDS011;59783;52.232;5.170;2023-04-01T23:38:55;33.42;;;29.02;;
71910;SDS011;59783;52.232;5.170;2023-04-01T23:41:25;34.35;;;29.67;;
71910;SDS011;59783;52.232;5.170;2023-04-01T23:44:01;35.38;;;31.60;;
71910;SDS011;59783;52.232;5.170;2023-04-01T23:46:27;39.03;;;32.53;;
71910;SDS011;59783;52.232;5.170;2023-04-01T23:48:53;36.42;;;32.45;;
71910;SDS011;59783;52.232;5.170;2023-04-01T23:51:21;33.43;;;29.90;;
71910;SDS011;59783;52.232;5.170;2023-04-01T23:53:47;37.15;;;32.92;;
71910;SDS011;59783;52.232;5.170;2023-04-01T23:56:20;36.72;;;32.83;;
71910;SDS011;59783;52.232;5.170;2023-04-01T23:58:47;34.15;;;25.30;;
